createdAt,value
2023-05-09T05:01:11.653Z,27.15
2023-05-09T05:02:11.501Z,27.16
2023-05-09T05:03:11.520Z,27.14
2023-05-09T05:04:11.570Z,27.15
2023-05-09T05:05:12.585Z,27.11
2023-05-09T05:06:11.657Z,27.15
2023-05-09T05:07:11.645Z,27.15
2023-05-09T05:08:11.670Z,27.18
2023-05-09T05:09:11.685Z,27.18
2023-05-09T05:10:11.709Z,27.16
2023-05-09T05:11:11.759Z,27.18
2023-05-09T05:12:11.833Z,27.18
2023-05-09T05:13:11.883Z,27.21
2023-05-09T05:14:11.900Z,27.19
2023-05-09T05:15:12.043Z,27.21
2023-05-09T05:16:12.065Z,27.24
2023-05-09T05:17:12.136Z,27.22
2023-05-09T05:18:12.088Z,27.24
2023-05-09T05:19:12.101Z,27.24
2023-05-09T05:20:12.153Z,27.25
2023-05-09T05:21:12.188Z,27.21
2023-05-09T05:22:12.293Z,27.26
2023-05-09T05:23:12.261Z,27.25
2023-05-09T05:24:12.280Z,27.25
2023-05-09T05:25:12.438Z,27.25
2023-05-09T05:26:12.306Z,27.25
2023-05-09T05:27:12.400Z,27.26
2023-05-09T05:28:12.436Z,27.26
2023-05-09T05:29:12.406Z,27.26
2023-05-09T05:30:12.463Z,27.26
2023-05-09T05:31:12.543Z,27.26
2023-05-09T05:32:12.499Z,27.29
2023-05-09T05:33:12.614Z,27.31
2023-05-09T05:34:12.584Z,27.29
2023-05-09T05:35:12.795Z,27.31
2023-05-09T05:36:12.615Z,27.28
2023-05-09T05:37:12.645Z,27.29
2023-05-09T05:38:12.629Z,27.31
2023-05-09T05:39:12.650Z,27.28
2023-05-09T05:40:12.893Z,27.29
2023-05-09T05:41:12.685Z,27.31
2023-05-09T05:42:12.726Z,27.31
2023-05-09T05:43:12.890Z,27.31
2023-05-09T05:44:12.772Z,27.29
2023-05-09T05:45:12.906Z,27.32
2023-05-09T05:46:12.899Z,27.32
2023-05-09T05:47:12.842Z,27.32
2023-05-09T05:48:12.845Z,27.34
2023-05-09T05:49:12.953Z,27.35
2023-05-09T07:40:12.657Z,24.43
2023-05-09T07:41:12.344Z,24.79
2023-05-09T07:42:12.331Z,25.09
2023-05-09T07:43:12.307Z,25.28
2023-05-09T07:44:12.319Z,25.42
2023-05-09T07:45:12.514Z,25.60
2023-05-09T07:46:12.347Z,25.72
2023-05-09T07:47:12.268Z,25.88
2023-05-09T07:48:12.347Z,25.98
2023-05-09T07:49:12.288Z,26.10
2023-05-09T07:50:12.268Z,26.23
2023-05-09T07:51:12.262Z,26.33
2023-05-09T07:52:12.246Z,26.44
2023-05-09T07:53:12.265Z,26.53
2023-05-09T07:54:12.216Z,26.61
2023-05-09T07:55:12.316Z,26.70
2023-05-09T07:56:12.328Z,26.77
2023-05-09T07:57:12.222Z,26.84
2023-05-09T07:58:12.225Z,26.91
2023-05-09T07:59:12.257Z,26.95
2023-05-09T08:00:12.184Z,26.99
2023-05-09T08:01:12.169Z,27.05
2023-05-09T08:02:12.211Z,27.06
2023-05-09T08:03:12.267Z,27.09
2023-05-09T08:04:12.241Z,27.11
2023-05-09T08:05:12.205Z,27.12
2023-05-09T08:06:12.200Z,27.14
2023-05-09T08:07:12.159Z,27.15
2023-05-09T08:08:12.150Z,27.18
2023-05-09T08:09:12.127Z,27.16
2023-05-09T08:10:12.125Z,27.22
2023-05-09T08:11:12.128Z,27.24
2023-05-09T08:12:12.262Z,27.25
2023-05-09T08:13:12.187Z,27.26
2023-05-09T08:14:12.802Z,27.32
2023-05-09T08:15:12.206Z,27.32
2023-05-09T08:16:12.152Z,27.31
2023-05-09T08:17:12.098Z,27.35
2023-05-09T08:18:12.044Z,27.38
2023-05-09T08:19:12.065Z,27.39
2023-05-09T08:20:12.043Z,27.41
2023-05-09T08:21:12.096Z,27.41
2023-05-09T08:22:12.043Z,27.43
2023-05-09T08:23:12.067Z,27.45
2023-05-09T08:24:12.036Z,27.46
2023-05-09T08:25:12.053Z,27.46
2023-05-09T08:26:11.996Z,27.48
2023-05-09T08:27:12.018Z,27.46
2023-05-09T08:28:12.153Z,27.49
2023-05-09T08:29:11.985Z,27.48
2023-05-09T08:30:11.966Z,27.50
2023-05-09T08:31:12.021Z,27.53
2023-05-09T08:32:12.026Z,27.53
2023-05-09T08:33:12.090Z,27.57
2023-05-09T08:34:11.980Z,27.57
2023-05-09T08:35:11.975Z,27.63
2023-05-09T08:36:11.933Z,27.67
2023-05-09T08:37:14.451Z,27.72
2023-05-09T08:38:11.963Z,27.72
2023-05-09T08:39:11.912Z,27.76
2023-05-09T08:40:11.960Z,27.80
2023-05-09T08:41:11.903Z,27.82
2023-05-09T08:42:11.934Z,27.86
2023-05-09T08:43:11.934Z,27.89
2023-05-09T08:44:12.034Z,27.92
2023-05-09T08:45:11.889Z,27.94
2023-05-09T08:46:11.928Z,27.97
2023-05-09T08:47:11.882Z,28.00
2023-05-09T08:48:11.882Z,28.03
2023-05-09T08:49:11.871Z,28.03
2023-05-09T08:50:12.055Z,28.04
2023-05-09T08:51:11.840Z,28.03
2023-05-09T08:52:11.855Z,28.04
2023-05-09T08:53:11.828Z,28.04
2023-05-09T08:54:11.808Z,28.07
2023-05-09T08:55:11.856Z,28.11
2023-05-09T08:56:11.825Z,28.13
2023-05-09T08:57:11.793Z,28.11
2023-05-09T08:58:11.811Z,28.13
2023-05-09T08:59:11.791Z,28.17
2023-05-09T09:00:11.887Z,28.18
2023-05-09T09:01:11.793Z,28.18
2023-05-09T09:02:11.839Z,28.18
2023-05-09T09:03:11.881Z,28.21
2023-05-09T09:04:11.747Z,28.20
2023-05-09T09:05:23.855Z,28.20
2023-05-09T09:06:12.727Z,28.18
2023-05-09T09:07:11.756Z,28.20
2023-05-09T09:08:11.737Z,28.21
2023-05-09T09:09:11.736Z,28.20
2023-05-09T09:10:11.709Z,28.21
2023-05-09T09:11:11.705Z,28.23
2023-05-09T09:12:11.708Z,28.20
2023-05-09T09:13:11.729Z,28.23
2023-05-09T09:14:11.659Z,28.20
2023-05-09T09:15:11.660Z,28.23
2023-05-09T09:16:11.766Z,28.23
2023-05-09T09:17:11.687Z,28.24
2023-05-09T09:18:11.734Z,28.18
2023-05-09T09:19:11.652Z,28.18
2023-05-09T09:20:11.667Z,28.20
2023-05-09T09:21:11.641Z,28.18
2023-05-09T09:22:11.622Z,28.18
2023-05-09T09:23:11.582Z,28.20
2023-05-09T09:24:11.607Z,28.20
2023-05-09T09:25:11.605Z,28.17
2023-05-09T09:26:11.583Z,28.15
2023-05-09T09:27:11.610Z,28.15
2023-05-09T09:28:11.576Z,28.15
2023-05-09T09:29:11.559Z,28.13
2023-05-09T09:30:11.565Z,28.11
2023-05-09T09:31:11.599Z,28.15
2023-05-09T09:32:11.774Z,28.10
2023-05-09T09:33:11.694Z,28.07
2023-05-09T09:34:11.699Z,28.11
2023-05-09T09:35:11.765Z,28.08
2023-05-09T09:36:11.821Z,28.07
2023-05-09T09:37:11.836Z,28.00
2023-05-09T09:38:11.894Z,28.00
2023-05-09T09:39:11.966Z,27.99
2023-05-09T09:40:12.282Z,27.96
2023-05-09T09:41:12.061Z,27.97
2023-05-09T09:42:12.104Z,27.97
2023-05-09T09:43:12.176Z,27.93
2023-05-09T09:44:12.216Z,27.90
2023-05-09T09:45:12.277Z,27.87
2023-05-09T09:46:12.374Z,27.84
2023-05-09T09:47:12.398Z,27.87
2023-05-09T09:48:12.597Z,27.80
2023-05-09T09:49:12.484Z,27.82
2023-05-09T09:50:12.705Z,27.79
2023-05-09T09:51:12.611Z,27.76
2023-05-09T09:52:12.669Z,27.73
2023-05-09T09:53:12.756Z,27.69
2023-05-09T09:54:12.680Z,27.66
2023-05-09T09:55:12.695Z,27.59
2023-05-09T09:56:12.700Z,27.55
2023-05-09T09:57:12.714Z,27.55
2023-05-09T09:58:12.746Z,27.53
2023-05-09T09:59:12.723Z,27.52
2023-05-09T10:00:12.890Z,27.50
2023-05-09T10:01:12.754Z,27.50
2023-05-09T10:02:12.746Z,27.55
2023-05-09T10:03:12.877Z,27.56
2023-05-09T10:04:12.841Z,27.56
2023-05-09T10:05:12.732Z,27.57
2023-05-09T10:06:12.750Z,27.56
2023-05-09T10:07:14.926Z,27.59
2023-05-09T10:08:12.807Z,27.57
2023-05-09T10:09:12.817Z,27.59
2023-05-09T10:10:13.252Z,27.55
2023-05-09T10:11:12.832Z,27.53
2023-05-09T10:12:12.797Z,27.55
2023-05-09T10:13:12.940Z,27.53
2023-05-09T10:14:12.885Z,27.56
2023-05-09T10:15:12.850Z,27.55
2023-05-09T10:16:13.122Z,27.57
2023-05-09T10:17:12.917Z,27.59
2023-05-09T10:18:12.983Z,27.62
2023-05-09T10:19:12.911Z,27.67
2023-05-09T10:20:13.414Z,27.70
2023-05-09T10:21:13.115Z,27.73
2023-05-09T10:22:13.117Z,27.73
2023-05-09T10:23:13.171Z,27.70
2023-05-09T10:24:13.253Z,27.76
2023-05-09T10:25:13.582Z,27.79
2023-05-09T10:26:13.375Z,27.80
2023-05-09T10:27:13.462Z,27.79
2023-05-09T10:28:13.480Z,27.76
2023-05-09T10:29:13.540Z,27.74
2023-05-09T10:30:13.549Z,27.74
2023-05-09T10:31:13.585Z,27.73
2023-05-09T10:32:13.584Z,27.77
2023-05-09T10:33:13.622Z,27.72
2023-05-09T10:34:13.647Z,27.73
2023-05-09T10:35:13.923Z,27.67
2023-05-09T10:36:13.828Z,27.66
2023-05-09T10:37:13.727Z,27.64
2023-05-09T10:38:13.741Z,27.64
2023-05-09T10:39:13.822Z,27.64
2023-05-09T10:40:13.762Z,27.63
2023-05-09T10:41:13.753Z,27.63
2023-05-09T10:42:13.757Z,27.59
2023-05-09T10:43:13.757Z,27.59
2023-05-09T10:44:13.772Z,27.62
2023-05-09T10:45:14.107Z,27.60
2023-05-09T10:46:13.813Z,27.63
2023-05-09T10:47:13.780Z,27.62
2023-05-09T10:48:13.822Z,27.59
2023-05-09T10:49:13.816Z,27.57
2023-05-09T10:50:13.834Z,27.59
2023-05-09T10:51:13.843Z,27.60
2023-05-09T10:52:13.923Z,27.59
2023-05-09T10:53:13.847Z,27.59
2023-05-09T10:54:13.860Z,27.62
2023-05-09T10:55:13.988Z,27.62
2023-05-09T10:56:13.903Z,27.64
2023-05-09T10:57:13.964Z,27.67
2023-05-09T10:58:13.994Z,27.69
2023-05-09T10:59:14.068Z,27.73
2023-05-09T11:00:14.135Z,27.76
2023-05-09T11:01:14.229Z,27.76
2023-05-09T11:02:14.231Z,27.77
2023-05-09T11:03:14.339Z,27.79
2023-05-09T11:04:14.514Z,27.80
2023-05-09T11:05:14.566Z,27.79
2023-05-09T11:06:14.478Z,27.80
2023-05-09T11:07:14.820Z,27.80
2023-05-09T11:08:14.678Z,27.77
2023-05-09T11:09:14.656Z,27.77
2023-05-09T11:10:14.686Z,27.79
2023-05-09T11:11:14.757Z,27.80
2023-05-09T11:12:14.829Z,27.79
2023-05-09T11:13:14.924Z,27.79
2023-05-09T11:14:14.921Z,27.79
2023-05-09T11:15:15.175Z,27.82
2023-05-09T11:16:15.078Z,27.84
2023-05-09T11:17:15.113Z,27.83
2023-05-09T11:18:15.306Z,27.84
2023-05-09T11:19:15.216Z,27.89
2023-05-09T11:20:15.332Z,27.93
2023-05-09T11:21:15.334Z,27.94
2023-05-09T11:22:15.377Z,27.99
2023-05-09T11:23:15.396Z,28.00
2023-05-09T11:24:15.521Z,28.00
2023-05-09T11:25:15.657Z,28.04
2023-05-09T11:26:15.510Z,28.05
2023-05-09T11:27:15.542Z,28.10
2023-05-09T11:28:15.546Z,28.13
2023-05-09T11:29:15.553Z,28.14
2023-05-09T11:30:15.652Z,28.15
2023-05-09T11:31:15.556Z,28.18
2023-05-09T11:32:15.841Z,28.20
2023-05-09T11:33:15.591Z,28.21
2023-05-09T11:34:15.582Z,28.24
2023-05-09T11:35:15.944Z,28.23
2023-05-09T11:36:15.638Z,28.24
2023-05-09T11:37:15.592Z,28.28
2023-05-09T11:38:15.605Z,28.30
2023-05-09T11:39:15.592Z,28.30
2023-05-09T11:40:15.749Z,28.31
2023-05-09T11:41:15.593Z,28.30
2023-05-09T11:42:15.590Z,28.32
2023-05-09T11:43:15.577Z,28.30
2023-05-09T11:44:15.603Z,28.31
2023-05-09T11:45:15.724Z,28.30
2023-05-09T11:46:15.630Z,28.31
2023-05-09T11:47:15.574Z,28.35
2023-05-09T11:48:15.581Z,28.34
2023-05-09T11:49:15.600Z,28.32
2023-05-09T11:50:15.638Z,28.32
2023-05-09T11:51:15.577Z,28.37
2023-05-09T11:52:15.599Z,28.37
2023-05-09T11:53:15.553Z,28.35
2023-05-09T11:54:15.638Z,28.37
2023-05-09T11:55:15.753Z,28.40
2023-05-09T11:56:15.656Z,28.38
2023-05-09T11:57:15.580Z,28.41
2023-05-09T11:58:15.597Z,28.41
2023-05-09T11:59:15.672Z,28.42
2023-05-09T12:00:15.787Z,28.42
2023-05-09T12:01:15.683Z,28.44
2023-05-09T12:02:15.720Z,28.44
2023-05-09T12:03:15.777Z,28.42
2023-05-09T12:04:15.729Z,28.44
2023-05-09T12:05:15.956Z,28.45
2023-05-09T12:06:15.688Z,28.45
2023-05-09T12:07:15.722Z,28.47
2023-05-09T12:08:15.744Z,28.45
2023-05-09T12:09:15.788Z,28.47
2023-05-09T12:10:15.858Z,28.47
2023-05-09T12:11:15.851Z,28.45
2023-05-09T12:12:15.940Z,28.47
2023-05-09T12:13:15.957Z,28.47
2023-05-09T12:14:15.899Z,28.45
2023-05-09T12:15:16.271Z,28.48
2023-05-09T12:16:15.972Z,28.47
2023-05-09T12:17:15.974Z,28.47
2023-05-09T12:18:15.956Z,28.45
2023-05-09T12:19:15.941Z,28.45
2023-05-09T12:20:16.008Z,28.42
2023-05-09T12:21:15.992Z,28.42
2023-05-09T12:22:15.939Z,28.40
2023-05-09T12:23:15.941Z,28.40
2023-05-09T12:24:15.912Z,28.37
2023-05-09T12:25:16.125Z,28.38
2023-05-09T12:26:15.951Z,28.37
2023-05-09T12:27:15.954Z,28.37
2023-05-09T12:28:16.036Z,28.35
2023-05-09T12:29:15.942Z,28.34
2023-05-09T12:30:16.009Z,28.35
2023-05-09T12:31:16.028Z,28.37
2023-05-09T12:32:15.987Z,28.34
2023-05-09T12:33:15.952Z,28.35
2023-05-09T12:34:15.969Z,28.34
2023-05-09T12:35:16.146Z,28.35
2023-05-09T12:36:15.949Z,28.37
2023-05-09T12:37:15.933Z,28.38
2023-05-09T12:38:15.969Z,28.38
2023-05-09T12:39:15.943Z,28.40
2023-05-09T12:40:15.997Z,28.40
2023-05-09T12:41:30.905Z,28.41
2023-05-09T12:42:16.973Z,28.41
2023-05-09T12:43:15.931Z,28.41
2023-05-09T12:44:16.041Z,28.42
2023-05-09T12:45:16.103Z,28.40
2023-05-09T12:46:15.960Z,28.40
2023-05-09T12:47:15.968Z,28.42
2023-05-09T12:48:15.909Z,28.44
2023-05-09T12:49:15.916Z,28.42
2023-05-09T12:50:15.928Z,28.47
2023-05-09T12:51:15.887Z,28.44
2023-05-09T12:52:15.900Z,28.45
2023-05-09T12:53:15.903Z,28.47
2023-05-09T12:54:15.876Z,28.50
2023-05-09T12:55:16.121Z,28.48
2023-05-09T12:56:15.874Z,28.47
2023-05-09T12:57:15.859Z,28.50
2023-05-09T12:58:15.846Z,28.50
2023-05-09T12:59:15.835Z,28.52
2023-05-09T13:00:15.877Z,28.51
2023-05-09T13:01:16.022Z,28.51
2023-05-09T13:02:16.072Z,28.52
2023-05-09T13:03:16.106Z,28.51
2023-05-09T13:04:16.118Z,28.50
2023-05-09T13:05:16.433Z,28.51
2023-05-09T13:06:16.261Z,28.51
2023-05-09T13:07:16.295Z,28.52
2023-05-09T13:08:16.346Z,28.51
2023-05-09T13:09:16.398Z,28.52
2023-05-09T13:10:16.435Z,28.51
2023-05-09T13:11:17.285Z,28.54
2023-05-09T13:12:16.557Z,28.56
2023-05-09T13:13:16.660Z,28.54
2023-05-09T13:14:16.667Z,28.54
2023-05-09T13:15:17.220Z,28.52
2023-05-09T13:16:17.979Z,28.56
2023-05-09T13:17:16.896Z,28.54
2023-05-09T13:18:16.925Z,28.54
2023-05-09T13:19:16.981Z,28.55
2023-05-09T13:20:17.306Z,28.58
2023-05-09T13:21:17.110Z,28.56
2023-05-09T13:22:17.156Z,28.58
2023-05-09T13:23:17.231Z,28.59
2023-05-09T13:24:17.311Z,28.58
2023-05-09T13:25:17.363Z,28.56
2023-05-09T13:26:17.442Z,28.58
2023-05-09T13:27:17.495Z,28.58
2023-05-09T13:28:17.554Z,28.58
2023-05-09T13:29:17.628Z,28.58
2023-05-09T13:30:18.160Z,28.61
2023-05-09T13:31:17.872Z,28.59
2023-05-09T13:32:17.893Z,28.59
2023-05-09T13:33:25.886Z,28.61
2023-05-09T13:34:18.858Z,28.59
2023-05-09T13:35:17.907Z,28.61
2023-05-09T13:36:17.858Z,28.63
2023-05-09T13:37:17.843Z,28.61
2023-05-09T13:38:17.843Z,28.63
2023-05-09T13:39:17.825Z,28.66
2023-05-09T13:40:17.932Z,28.66
2023-05-09T13:41:17.834Z,28.63
2023-05-09T13:42:19.172Z,28.68
2023-05-09T13:43:17.911Z,28.66
2023-05-09T13:44:17.924Z,28.68
2023-05-09T13:45:17.969Z,28.71
2023-05-09T13:46:18.114Z,28.72
2023-05-09T13:47:18.086Z,28.72
2023-05-09T13:48:18.263Z,28.73
2023-05-09T13:49:18.211Z,28.78
2023-05-09T13:50:18.559Z,28.73
2023-05-09T13:51:18.297Z,28.76
2023-05-09T13:52:18.377Z,28.75
2023-05-09T13:53:18.408Z,28.75
2023-05-09T13:54:18.471Z,28.73
2023-05-09T13:55:18.557Z,28.76
2023-05-09T13:56:18.573Z,28.75
2023-05-09T13:57:18.628Z,28.78
2023-05-09T13:58:18.683Z,28.81
2023-05-09T13:59:18.766Z,28.81
2023-05-09T14:00:18.986Z,28.81
2023-05-09T14:01:18.952Z,28.82
2023-05-09T14:02:18.930Z,28.82
2023-05-09T14:03:19.015Z,28.81
2023-05-09T14:04:19.000Z,28.81
2023-05-09T14:05:19.029Z,28.76
2023-05-09T14:06:19.128Z,28.79
2023-05-09T14:07:19.158Z,28.79
2023-05-09T14:08:19.225Z,28.76
2023-05-09T14:09:19.273Z,28.78
2023-05-09T14:10:19.492Z,28.78
2023-05-09T14:11:19.392Z,28.78
2023-05-09T14:12:19.407Z,28.76
2023-05-09T14:13:19.549Z,28.73
2023-05-09T14:14:19.519Z,28.75
2023-05-09T14:15:19.572Z,28.76
2023-05-09T14:16:19.668Z,28.79
2023-05-09T14:17:19.724Z,28.79
2023-05-09T14:18:21.138Z,28.83
2023-05-09T14:19:19.774Z,28.86
2023-05-09T14:20:19.954Z,28.82
2023-05-09T14:21:19.865Z,28.88
2023-05-09T14:22:20.023Z,28.89
2023-05-09T14:23:19.975Z,28.88
2023-05-09T14:24:19.984Z,28.92
2023-05-09T14:25:20.050Z,28.90
2023-05-09T14:26:20.094Z,28.93
2023-05-09T14:27:20.117Z,28.96
2023-05-09T14:28:20.170Z,28.96
2023-05-09T14:29:20.190Z,28.99
2023-05-09T14:30:20.266Z,28.99
2023-05-09T14:31:20.294Z,28.99
2023-05-09T14:32:20.275Z,29.02
2023-05-09T14:33:20.304Z,29.03
2023-05-09T14:34:20.350Z,29.05
2023-05-09T14:35:20.413Z,29.07
2023-05-09T14:36:20.495Z,29.06
2023-05-09T14:37:20.427Z,29.09
2023-05-09T14:38:20.434Z,29.07
2023-05-09T14:39:20.429Z,29.09
2023-05-09T14:40:20.519Z,29.10
2023-05-09T14:41:21.551Z,29.12
2023-05-09T14:42:20.502Z,29.10
2023-05-09T14:43:20.516Z,29.12
2023-05-09T14:44:20.520Z,29.10
2023-05-09T14:45:20.604Z,29.14
2023-05-09T14:46:20.598Z,29.14
2023-05-09T14:47:20.584Z,29.13
2023-05-09T14:48:20.565Z,29.17
2023-05-09T14:49:20.591Z,29.17
2023-05-09T14:50:20.559Z,29.19
2023-05-09T14:51:20.589Z,29.20
2023-05-09T14:52:20.684Z,29.20
2023-05-09T14:53:20.574Z,29.21
2023-05-09T14:54:20.612Z,29.19
2023-05-09T14:55:20.605Z,29.21
2023-05-09T14:56:20.592Z,29.21
2023-05-09T14:57:20.613Z,29.21
2023-05-09T14:58:20.632Z,29.24
2023-05-09T14:59:20.637Z,29.26
2023-05-09T15:00:22.302Z,29.26
2023-05-09T15:01:20.613Z,29.26
2023-05-09T15:02:20.629Z,29.27
2023-05-09T15:03:20.627Z,29.27
2023-05-09T15:04:20.652Z,29.26
2023-05-09T15:05:20.679Z,29.27
2023-05-09T15:06:20.625Z,29.29
2023-05-09T15:07:20.647Z,29.29
2023-05-09T15:08:20.732Z,29.30
2023-05-09T15:09:20.684Z,29.29
2023-05-09T15:10:20.656Z,29.31
2023-05-09T15:11:20.640Z,29.30
2023-05-09T15:12:20.690Z,29.30
2023-05-09T15:13:20.773Z,29.33
2023-05-09T15:14:20.676Z,29.33
2023-05-09T15:15:20.658Z,29.34
2023-05-09T15:16:20.677Z,29.33
2023-05-09T15:17:20.639Z,29.34
2023-05-09T15:18:20.645Z,29.34
2023-05-09T15:19:20.654Z,29.34
2023-05-09T15:20:20.645Z,29.36
2023-05-09T15:21:20.654Z,29.34
2023-05-09T15:22:20.619Z,29.36
2023-05-09T15:23:20.685Z,29.36
2023-05-09T15:24:20.706Z,29.37
2023-05-09T15:25:20.632Z,29.36
2023-05-09T15:26:20.621Z,29.36
2023-05-09T15:27:20.616Z,29.38
2023-05-09T15:28:20.605Z,29.36
2023-05-09T15:29:20.625Z,29.37
2023-05-09T15:30:20.585Z,29.36
2023-05-09T15:31:20.669Z,29.37
2023-05-09T15:32:20.612Z,29.36
2023-05-09T15:33:20.617Z,29.38
2023-05-09T15:34:20.577Z,29.37
2023-05-09T15:35:20.607Z,29.37
2023-05-09T15:36:20.571Z,29.37
2023-05-09T15:37:20.583Z,29.37
2023-05-09T15:38:20.594Z,29.37
2023-05-09T15:39:20.610Z,29.36
2023-05-09T15:40:20.661Z,29.37
2023-05-09T15:41:20.565Z,29.36
2023-05-09T15:42:20.579Z,29.38
2023-05-09T15:43:20.556Z,29.41
2023-05-09T15:44:20.557Z,29.37
2023-05-09T15:45:20.569Z,29.37
2023-05-09T15:46:20.642Z,29.38
2023-05-09T15:47:20.634Z,29.40
2023-05-09T15:48:20.586Z,29.38
2023-05-09T15:49:20.586Z,29.37
2023-05-09T15:50:20.606Z,29.38
2023-05-09T15:51:20.597Z,29.38
2023-05-09T15:52:20.582Z,29.36
2023-05-09T15:53:20.626Z,29.36
2023-05-09T15:54:20.612Z,29.38
2023-05-09T15:55:20.694Z,29.40
2023-05-09T15:56:20.720Z,29.38
2023-05-09T15:57:20.614Z,29.38
2023-05-09T15:58:20.633Z,29.36
2023-05-09T15:59:20.629Z,29.38
2023-05-09T16:00:20.632Z,29.38
2023-05-09T16:01:20.689Z,29.37
2023-05-09T16:02:20.668Z,29.38
2023-05-09T16:03:20.775Z,29.38
2023-05-09T16:04:20.665Z,29.37
2023-05-09T16:05:20.684Z,29.36
2023-05-09T16:06:20.656Z,29.34
2023-05-09T16:07:20.892Z,29.38
2023-05-09T16:08:20.665Z,29.36
2023-05-09T16:09:20.685Z,29.37
2023-05-09T16:10:20.640Z,29.34
2023-05-09T16:11:20.663Z,29.37
2023-05-09T16:12:20.753Z,29.34
2023-05-09T16:13:20.689Z,29.38
2023-05-09T16:14:20.713Z,29.36
2023-05-09T16:15:20.669Z,29.36
2023-05-09T16:16:20.720Z,29.37
2023-05-09T16:17:20.680Z,29.36
2023-05-09T16:18:20.704Z,29.36
2023-05-09T16:19:20.701Z,29.34
2023-05-09T16:20:20.686Z,29.34
2023-05-09T16:21:20.732Z,29.36
2023-05-09T16:22:20.694Z,29.33
2023-05-09T16:23:20.738Z,29.34
2023-05-09T16:24:20.710Z,29.33
2023-05-09T16:25:20.698Z,29.34
2023-05-09T16:26:20.749Z,29.34
2023-05-09T16:27:20.727Z,29.33
2023-05-09T16:28:20.808Z,29.31
2023-05-09T16:29:20.759Z,29.31
2023-05-09T16:30:20.745Z,29.31
2023-05-09T16:31:20.822Z,29.31
2023-05-09T16:32:20.768Z,29.33
2023-05-09T16:33:20.791Z,29.31
2023-05-09T16:34:20.768Z,29.30
2023-05-09T16:35:20.802Z,29.31
2023-05-09T16:36:20.832Z,29.30
2023-05-09T16:37:20.847Z,29.31
2023-05-09T16:38:20.829Z,29.27
2023-05-09T16:39:20.832Z,29.29
2023-05-09T16:40:20.826Z,29.29
2023-05-09T16:41:20.844Z,29.30
2023-05-09T16:42:20.873Z,29.29
2023-05-09T16:43:20.863Z,29.27
2023-05-09T16:44:20.980Z,29.27
2023-05-09T16:45:20.958Z,29.27
2023-05-09T16:46:20.950Z,29.29
2023-05-09T16:47:20.929Z,29.29
2023-05-09T16:48:20.914Z,29.26
2023-05-09T16:49:20.933Z,29.27
2023-05-09T16:50:20.927Z,29.27
2023-05-09T16:51:20.995Z,29.27
2023-05-09T16:52:21.006Z,29.26
2023-05-09T16:53:20.989Z,29.26
2023-05-09T16:54:21.013Z,29.24
2023-05-09T16:55:21.027Z,29.23
2023-05-09T16:56:21.026Z,29.24
2023-05-09T16:57:21.030Z,29.23
2023-05-09T16:58:21.119Z,29.26
2023-05-09T16:59:21.087Z,29.26
2023-05-09T17:00:21.091Z,29.24
